createdAt,value
2022-08-27T00:02:03.461Z,10.00
2022-08-27T00:04:33.350Z,10.57
2022-08-27T00:07:01.874Z,10.80
2022-08-27T00:09:30.341Z,12.20
2022-08-27T00:11:58.592Z,10.23
2022-08-27T00:14:28.321Z,10.43
2022-08-27T00:16:56.718Z,11.67
2022-08-27T00:19:25.097Z,10.37
2022-08-27T00:21:55.760Z,11.50
2022-08-27T00:24:23.751Z,11.40
2022-08-27T00:26:53.469Z,10.63
2022-08-27T00:29:22.196Z,11.03
2022-08-27T00:31:53.191Z,11.60
2022-08-27T00:34:22.995Z,12.37
2022-08-27T00:36:50.996Z,11.17
2022-08-27T00:39:20.606Z,12.63
2022-08-27T00:41:49.191Z,11.83
2022-08-27T00:44:17.396Z,12.67
2022-08-27T00:46:50.375Z,11.17
2022-08-27T00:49:21.852Z,12.93
2022-08-27T00:51:54.036Z,13.13
2022-08-27T00:54:23.623Z,14.70
2022-08-27T00:56:52.077Z,12.70
2022-08-27T00:59:24.774Z,12.83
2022-08-27T01:02:11.146Z,13.70
2022-08-27T01:04:42.055Z,11.57
2022-08-27T01:07:11.117Z,14.03
2022-08-27T01:09:44.035Z,15.47
2022-08-27T01:12:12.239Z,12.20
2022-08-27T01:14:40.853Z,12.93
2022-08-27T01:17:11.313Z,12.23
2022-08-27T01:19:44.572Z,13.40
2022-08-27T01:22:23.461Z,14.57
2022-08-27T01:24:55.774Z,13.83
2022-08-27T01:27:27.390Z,14.20
2022-08-27T01:29:55.693Z,16.10
2022-08-27T01:32:25.884Z,14.30
2022-08-27T01:34:54.876Z,14.93
2022-08-27T01:37:24.337Z,13.77
2022-08-27T01:39:55.680Z,13.33
2022-08-27T01:42:27.585Z,16.87
2022-08-27T01:44:58.498Z,14.40
2022-08-27T01:47:31.356Z,17.23
2022-08-27T01:50:00.311Z,21.73
2022-08-27T01:52:30.838Z,17.40
2022-08-27T01:55:00.338Z,13.83
2022-08-27T01:57:28.481Z,20.20
2022-08-27T01:59:58.014Z,15.63
2022-08-27T02:02:26.461Z,16.40
2022-08-27T02:04:54.467Z,14.03
2022-08-27T02:07:22.764Z,12.57
2022-08-27T02:09:50.853Z,12.60
2022-08-27T02:12:20.166Z,17.43
2022-08-27T02:14:48.194Z,14.90
2022-08-27T02:17:16.427Z,16.40
2022-08-27T02:19:45.260Z,13.37
2022-08-27T02:22:13.147Z,16.47
2022-08-27T02:24:42.136Z,16.60
2022-08-27T02:27:10.396Z,14.73
2022-08-27T02:29:39.707Z,15.67
2022-08-27T02:32:07.808Z,14.60
2022-08-27T02:34:49.059Z,18.80
2022-08-27T02:37:17.109Z,16.07
2022-08-27T02:39:46.170Z,15.50
2022-08-27T02:42:14.153Z,17.00
2022-08-27T02:44:43.974Z,18.30
2022-08-27T02:47:12.113Z,17.30
2022-08-27T02:49:40.019Z,17.27
2022-08-27T02:52:07.955Z,14.30
2022-08-27T02:54:35.947Z,13.83
2022-08-27T02:57:03.962Z,16.70
2022-08-27T02:59:31.835Z,20.10
2022-08-27T03:02:01.345Z,17.90
2022-08-27T03:04:29.402Z,18.67
2022-08-27T03:06:57.569Z,25.93
2022-08-27T03:09:25.463Z,18.30
2022-08-27T03:11:53.690Z,20.90
2022-08-27T03:14:21.682Z,18.10
2022-08-27T03:16:49.560Z,22.00
2022-08-27T03:19:21.561Z,25.60
2022-08-27T03:21:54.390Z,23.60
2022-08-27T03:24:22.920Z,22.03
2022-08-27T03:26:52.740Z,21.43
2022-08-27T03:29:22.014Z,22.20
2022-08-27T03:31:49.931Z,27.43
2022-08-27T03:34:19.637Z,21.00
2022-08-27T03:36:48.776Z,24.07
2022-08-27T03:39:16.646Z,28.97
2022-08-27T03:41:55.382Z,21.80
2022-08-27T03:44:24.442Z,24.00
2022-08-27T03:46:53.147Z,23.20
2022-08-27T03:49:24.070Z,23.70
2022-08-27T03:51:53.242Z,25.40
2022-08-27T03:54:21.168Z,21.43
2022-08-27T03:56:49.226Z,24.47
2022-08-27T03:59:17.098Z,27.97
2022-08-27T04:01:45.573Z,24.93
2022-08-27T04:04:14.026Z,24.90
2022-08-27T04:06:59.163Z,26.77
2022-08-27T04:09:27.837Z,28.10
2022-08-27T04:11:56.040Z,30.00
2022-08-27T04:14:27.123Z,29.60
2022-08-27T04:16:56.233Z,26.43
2022-08-27T04:19:27.626Z,22.90
2022-08-27T04:22:01.682Z,27.00
2022-08-27T04:24:31.167Z,24.00
2022-08-27T04:26:59.436Z,26.73
2022-08-27T04:29:27.489Z,26.37
2022-08-27T04:31:56.117Z,28.57
2022-08-27T04:34:24.186Z,22.70
2022-08-27T04:36:52.139Z,26.17
2022-08-27T04:39:21.388Z,23.63
2022-08-27T04:41:50.605Z,26.93
2022-08-27T04:44:18.485Z,21.33
2022-08-27T04:46:48.430Z,22.93
2022-08-27T04:49:17.999Z,25.23
2022-08-27T04:51:47.597Z,24.53
2022-08-27T04:54:16.540Z,23.80
2022-08-27T04:56:46.254Z,21.13
2022-08-27T04:59:14.650Z,23.50
2022-08-27T05:01:49.175Z,27.73
2022-08-27T05:04:18.902Z,24.37
2022-08-27T05:06:56.812Z,19.93
2022-08-27T05:09:26.843Z,18.87
2022-08-27T05:11:56.680Z,21.53
2022-08-27T05:14:32.736Z,22.43
2022-08-27T05:17:01.360Z,24.07
2022-08-27T05:19:29.386Z,19.03
2022-08-27T05:21:57.478Z,21.80
2022-08-27T05:24:25.429Z,21.10
2022-08-27T05:26:53.649Z,23.67
2022-08-27T05:29:23.395Z,19.67
2022-08-27T05:31:51.451Z,21.60
2022-08-27T05:34:22.216Z,24.83
2022-08-27T05:36:53.395Z,25.07
2022-08-27T05:39:21.332Z,25.43
2022-08-27T05:41:49.370Z,23.97
2022-08-27T05:44:40.599Z,25.67
2022-08-27T05:47:06.859Z,27.00
2022-08-27T05:49:35.025Z,24.90
2022-08-27T05:52:03.240Z,25.83
2022-08-27T05:54:31.187Z,25.53
2022-08-27T05:56:59.069Z,26.13
2022-08-27T05:59:44.419Z,24.50
2022-08-27T06:02:13.793Z,25.57
2022-08-27T06:04:41.844Z,25.60
2022-08-27T06:07:10.909Z,24.80
2022-08-27T06:09:39.728Z,24.13
2022-08-27T06:12:08.667Z,29.17
2022-08-27T06:14:37.335Z,25.77
2022-08-27T06:17:06.319Z,23.60
2022-08-27T06:19:36.449Z,25.93
2022-08-27T06:22:10.350Z,40.27
2022-08-27T06:24:40.282Z,24.80
2022-08-27T06:27:09.789Z,25.07
2022-08-27T06:29:37.779Z,21.20
2022-08-27T06:32:06.095Z,23.63
2022-08-27T06:34:35.803Z,27.57
2022-08-27T06:37:04.843Z,22.47
2022-08-27T06:39:33.044Z,24.37
2022-08-27T06:42:00.934Z,24.73
2022-08-27T06:44:33.820Z,22.00
2022-08-27T06:47:03.662Z,25.10
2022-08-27T06:49:31.852Z,29.00
2022-08-27T06:52:01.101Z,26.83
2022-08-27T06:54:29.000Z,23.77
2022-08-27T06:56:59.868Z,23.10
2022-08-27T06:59:27.792Z,26.43
2022-08-27T07:01:55.696Z,20.07
2022-08-27T07:04:31.955Z,28.20
2022-08-27T07:07:03.096Z,20.60
2022-08-27T07:09:32.501Z,20.43
2022-08-27T07:12:00.931Z,19.50
2022-08-27T07:14:31.734Z,20.13
2022-08-27T07:17:02.248Z,20.00
2022-08-27T07:19:32.191Z,19.20
2022-08-27T07:22:00.236Z,17.53
2022-08-27T07:24:29.608Z,22.13
2022-08-27T07:26:57.926Z,24.50
2022-08-27T07:29:28.303Z,20.50
2022-08-27T07:31:59.659Z,22.73
2022-08-27T07:34:27.838Z,22.03
2022-08-27T07:36:55.800Z,17.77
2022-08-27T07:39:23.746Z,19.30
2022-08-27T07:42:10.761Z,20.30
2022-08-27T07:44:38.651Z,16.20
2022-08-27T07:47:06.927Z,16.00
2022-08-27T07:49:36.303Z,15.37
2022-08-27T07:52:06.232Z,20.50
2022-08-27T07:54:34.357Z,18.33
2022-08-27T07:57:04.039Z,21.07
2022-08-27T07:59:31.922Z,16.03
2022-08-27T08:01:59.842Z,16.40
2022-08-27T08:04:27.846Z,26.47
2022-08-27T08:06:56.554Z,18.70
2022-08-27T08:09:25.048Z,14.90
2022-08-27T08:11:54.119Z,12.63
2022-08-27T08:14:23.668Z,19.30
2022-08-27T08:16:51.770Z,14.40
2022-08-27T08:19:19.699Z,16.07
2022-08-27T08:21:47.733Z,16.50
2022-08-27T08:24:15.600Z,15.40
2022-08-27T08:26:44.242Z,19.20
2022-08-27T08:29:17.693Z,14.37
2022-08-27T08:31:49.823Z,13.40
2022-08-27T08:34:19.574Z,12.97
2022-08-27T08:36:54.077Z,12.80
2022-08-27T08:39:23.107Z,11.47
2022-08-27T08:41:53.830Z,14.43
2022-08-27T08:44:32.020Z,15.40
2022-08-27T08:47:05.136Z,11.90
2022-08-27T08:49:44.426Z,12.47
2022-08-27T08:52:30.513Z,17.03
2022-08-27T08:55:08.501Z,12.10
2022-08-27T08:57:41.911Z,11.90
2022-08-27T09:00:13.313Z,13.53
2022-08-27T09:02:48.832Z,16.13
2022-08-27T09:05:17.262Z,11.23
2022-08-27T09:07:51.515Z,10.20
2022-08-27T09:10:27.348Z,12.10
2022-08-27T09:13:00.771Z,11.83
2022-08-27T09:15:31.776Z,9.40
2022-08-27T09:18:14.171Z,12.23
2022-08-27T09:20:48.379Z,11.47
2022-08-27T09:23:25.184Z,15.73
2022-08-27T09:25:53.103Z,10.20
2022-08-27T09:28:42.709Z,13.60
2022-08-27T09:31:14.608Z,12.50
2022-08-27T09:33:56.323Z,11.70
2022-08-27T09:36:28.060Z,14.73
2022-08-27T09:39:02.216Z,9.30
2022-08-27T09:41:33.332Z,10.77
2022-08-27T09:44:03.437Z,12.87
2022-08-27T09:46:31.614Z,10.70
2022-08-27T09:49:11.542Z,12.07
2022-08-27T09:51:43.101Z,14.00
2022-08-27T09:54:12.364Z,11.00
2022-08-27T09:56:42.087Z,12.70
2022-08-27T09:59:12.238Z,12.83
2022-08-27T10:01:53.264Z,11.13
2022-08-27T10:04:28.811Z,9.43
2022-08-27T10:06:56.856Z,9.57
2022-08-27T10:09:31.314Z,9.70
2022-08-27T10:12:06.995Z,9.30
2022-08-27T10:14:41.744Z,10.70
2022-08-27T10:17:16.715Z,8.03
2022-08-27T10:19:59.323Z,13.43
2022-08-27T10:22:37.001Z,10.23
2022-08-27T10:25:14.037Z,13.10
2022-08-27T10:27:50.498Z,10.73
2022-08-27T10:30:20.802Z,12.47
2022-08-27T10:33:03.679Z,8.93
2022-08-27T10:35:46.811Z,10.73
2022-08-27T10:38:25.658Z,9.83
2022-08-27T10:40:59.269Z,11.17
2022-08-27T10:43:46.208Z,8.73
2022-08-27T10:46:31.322Z,9.47
2022-08-27T10:49:07.706Z,11.67
2022-08-27T10:51:43.412Z,9.23
2022-08-27T10:54:20.204Z,8.40
2022-08-27T10:57:14.459Z,11.03
2022-08-27T10:59:52.660Z,9.90
2022-08-27T11:02:29.605Z,10.60
2022-08-27T11:05:03.192Z,8.23
2022-08-27T11:07:36.962Z,9.00
2022-08-27T11:10:09.194Z,8.60
2022-08-27T11:12:42.433Z,8.10
2022-08-27T11:15:14.466Z,7.80
2022-08-27T11:17:46.376Z,8.17
2022-08-27T11:20:19.760Z,13.03
2022-08-27T11:22:53.749Z,9.63
2022-08-27T11:25:38.048Z,8.90
2022-08-27T11:28:08.438Z,9.87
2022-08-27T11:30:44.997Z,7.83
2022-08-27T11:33:19.072Z,10.63
2022-08-27T11:36:16.071Z,9.03
2022-08-27T11:38:56.422Z,9.00
2022-08-27T11:41:55.303Z,9.83
2022-08-27T11:44:26.512Z,10.60
2022-08-27T11:46:57.797Z,9.80
2022-08-27T11:49:30.440Z,7.33
2022-08-27T11:52:02.128Z,9.57
2022-08-27T11:54:44.270Z,9.63
2022-08-27T11:57:16.368Z,8.50
2022-08-27T11:59:44.468Z,11.03
2022-08-27T12:02:22.900Z,9.80
2022-08-27T12:04:50.999Z,8.57
2022-08-27T12:07:42.032Z,12.80
2022-08-27T12:10:25.228Z,8.60
2022-08-27T12:13:02.628Z,8.63
2022-08-27T12:15:47.775Z,9.93
2022-08-27T12:18:37.662Z,11.10
2022-08-27T12:21:16.859Z,9.13
2022-08-27T12:23:53.832Z,10.30
2022-08-27T12:26:32.166Z,7.83
2022-08-27T12:29:35.027Z,8.57
2022-08-27T12:32:24.847Z,9.47
2022-08-27T12:35:01.210Z,7.43
2022-08-27T12:37:33.048Z,8.80
2022-08-27T12:40:06.379Z,8.37
2022-08-27T12:42:35.898Z,10.17
2022-08-27T12:45:04.925Z,7.70
2022-08-27T12:47:40.019Z,8.40
2022-08-27T12:50:23.260Z,8.20
2022-08-27T12:53:15.171Z,7.47
2022-08-27T12:56:03.713Z,10.20
2022-08-27T12:58:43.465Z,7.53
2022-08-27T13:01:37.661Z,9.53
2022-08-27T13:04:21.644Z,9.50
2022-08-27T13:06:50.782Z,9.77
2022-08-27T13:09:27.847Z,12.30
2022-08-27T13:11:56.927Z,9.40
2022-08-27T13:14:28.632Z,11.87
2022-08-27T13:17:00.423Z,10.43
2022-08-27T13:19:31.319Z,11.63
2022-08-27T13:22:01.404Z,9.73
2022-08-27T13:24:32.457Z,10.00
2022-08-27T13:27:02.807Z,12.10
2022-08-27T13:29:32.727Z,9.20
2022-08-27T13:32:02.823Z,11.00
2022-08-27T13:34:35.552Z,14.73
2022-08-27T13:37:06.190Z,13.33
2022-08-27T13:39:36.433Z,12.20
2022-08-27T13:42:08.244Z,11.27
2022-08-27T13:44:40.716Z,9.97
2022-08-27T13:47:14.737Z,10.00
2022-08-27T13:49:42.807Z,8.87
2022-08-27T13:52:24.620Z,9.30
2022-08-27T13:55:00.144Z,9.67
2022-08-27T13:57:31.377Z,8.77
2022-08-27T14:00:15.219Z,12.40
2022-08-27T14:02:55.805Z,10.47
2022-08-27T14:05:34.006Z,10.37
2022-08-27T14:08:12.697Z,14.40
2022-08-27T14:10:44.900Z,11.67
2022-08-27T14:13:22.295Z,10.80
2022-08-27T14:15:54.043Z,9.70
2022-08-27T14:18:42.179Z,9.03
2022-08-27T14:21:14.212Z,10.80
2022-08-27T14:23:42.142Z,10.17
2022-08-27T14:26:10.739Z,9.70
2022-08-27T14:28:38.866Z,8.33
2022-08-27T14:31:08.349Z,9.97
2022-08-27T14:33:36.348Z,15.30
2022-08-27T14:36:05.455Z,11.30
2022-08-27T14:38:34.523Z,13.23
2022-08-27T14:41:02.474Z,10.33
2022-08-27T14:43:35.524Z,8.33
2022-08-27T14:46:04.415Z,15.73
2022-08-27T14:48:35.648Z,13.63
2022-08-27T14:51:12.296Z,13.70
2022-08-27T14:53:40.271Z,14.50
2022-08-27T14:56:08.271Z,15.10
2022-08-27T14:58:36.208Z,14.73
2022-08-27T15:01:04.662Z,18.87
2022-08-27T15:03:37.703Z,20.13
2022-08-27T15:06:06.658Z,18.93
2022-08-27T15:08:34.874Z,15.13
2022-08-27T15:11:05.282Z,20.83
2022-08-27T15:13:33.489Z,14.30
2022-08-27T15:16:01.482Z,13.47
2022-08-27T15:18:29.392Z,12.97
2022-08-27T15:20:58.670Z,14.13
2022-08-27T15:23:26.762Z,13.53
2022-08-27T15:25:54.689Z,11.90
2022-08-27T15:28:22.625Z,13.07
2022-08-27T15:30:50.581Z,15.13
2022-08-27T15:33:20.376Z,12.60
2022-08-27T15:35:48.310Z,17.90
2022-08-27T15:38:17.570Z,17.03
2022-08-27T15:40:45.782Z,13.93
2022-08-27T15:43:15.044Z,11.50
2022-08-27T15:45:43.120Z,12.63
2022-08-27T15:48:12.077Z,16.07
2022-08-27T15:50:40.572Z,14.53
2022-08-27T15:53:10.017Z,17.60
2022-08-27T15:55:42.161Z,13.00
2022-08-27T15:58:10.950Z,12.37
2022-08-27T16:00:39.945Z,13.40
2022-08-27T16:03:11.722Z,13.80
2022-08-27T16:05:41.646Z,15.30
2022-08-27T16:08:10.347Z,13.43
2022-08-27T16:10:40.263Z,12.47
2022-08-27T16:13:08.185Z,14.57
2022-08-27T16:15:40.330Z,14.83
2022-08-27T16:18:11.581Z,15.37
2022-08-27T16:20:39.647Z,10.93
2022-08-27T16:23:07.987Z,12.03
2022-08-27T16:25:36.091Z,13.40
2022-08-27T16:28:05.623Z,10.40
2022-08-27T16:30:33.706Z,11.50
2022-08-27T16:33:01.661Z,11.57
2022-08-27T16:35:29.621Z,10.40
2022-08-27T16:37:57.579Z,16.23
2022-08-27T16:40:26.690Z,12.53
2022-08-27T16:42:54.849Z,12.83
2022-08-27T16:45:25.086Z,13.43
2022-08-27T16:48:11.070Z,12.70
2022-08-27T16:50:40.617Z,9.73
2022-08-27T16:53:13.663Z,11.10
2022-08-27T16:55:43.437Z,14.00
2022-08-27T16:58:17.962Z,10.90
2022-08-27T17:00:49.948Z,15.87
2022-08-27T17:03:19.829Z,9.20
2022-08-27T17:05:48.566Z,12.10
2022-08-27T17:08:18.370Z,11.27
2022-08-27T17:10:49.366Z,14.50
2022-08-27T17:13:20.457Z,14.20
2022-08-27T17:15:53.131Z,13.30
2022-08-27T17:18:22.038Z,13.67
2022-08-27T17:20:50.277Z,12.70
2022-08-27T17:23:22.622Z,12.40
2022-08-27T17:25:50.580Z,12.83
2022-08-27T17:28:18.517Z,13.27
2022-08-27T17:30:46.747Z,14.17
2022-08-27T17:33:20.816Z,14.37
2022-08-27T17:35:49.270Z,15.50
2022-08-27T17:38:18.234Z,13.93
2022-08-27T17:40:46.335Z,21.97
2022-08-27T17:43:21.287Z,13.70
2022-08-27T17:45:49.964Z,12.60
2022-08-27T17:48:23.784Z,15.60
2022-08-27T17:50:54.384Z,13.27
2022-08-27T17:53:22.321Z,17.80
2022-08-27T17:55:50.414Z,13.37
2022-08-27T17:58:21.220Z,15.57
2022-08-27T18:00:49.497Z,20.10
2022-08-27T18:03:21.038Z,13.20
2022-08-27T18:05:50.119Z,13.63
2022-08-27T18:08:18.017Z,13.10
2022-08-27T18:10:48.795Z,15.80
2022-08-27T18:13:17.804Z,14.20
2022-08-27T18:15:46.104Z,17.30
2022-08-27T18:18:15.234Z,15.73
2022-08-27T18:20:44.584Z,14.00
2022-08-27T18:23:14.364Z,15.53
2022-08-27T18:25:45.248Z,15.33
2022-08-27T18:28:14.718Z,16.37
2022-08-27T18:30:46.723Z,17.53
2022-08-27T18:33:15.190Z,15.47
2022-08-27T18:35:44.767Z,15.60
2022-08-27T18:38:13.415Z,15.57
2022-08-27T18:40:43.432Z,15.23
2022-08-27T18:43:11.718Z,17.33
2022-08-27T18:45:39.954Z,14.03
2022-08-27T18:48:13.388Z,13.53
2022-08-27T18:50:46.726Z,13.27
2022-08-27T18:53:17.122Z,16.30
2022-08-27T18:55:45.416Z,14.53
2022-08-27T18:58:13.846Z,17.40
2022-08-27T19:00:43.806Z,14.47
2022-08-27T19:03:12.959Z,13.03
2022-08-27T19:05:40.890Z,14.43
2022-08-27T19:08:12.680Z,15.20
2022-08-27T19:10:40.912Z,14.33
2022-08-27T19:13:08.880Z,19.03
2022-08-27T19:15:37.040Z,16.77
2022-08-27T19:18:05.513Z,15.90
2022-08-27T19:20:33.574Z,18.40
2022-08-27T19:23:01.574Z,14.57
2022-08-27T19:25:31.228Z,15.63
2022-08-27T19:27:59.358Z,20.53
2022-08-27T19:30:27.358Z,16.13
2022-08-27T19:32:57.652Z,17.23
2022-08-27T19:35:25.971Z,13.73
2022-08-27T19:37:54.092Z,16.67
2022-08-27T19:40:22.877Z,16.17
2022-08-27T19:42:52.486Z,14.37
2022-08-27T19:45:23.800Z,15.27
2022-08-27T19:47:54.314Z,15.80
2022-08-27T19:50:23.969Z,14.30
2022-08-27T19:52:52.898Z,14.80
2022-08-27T19:55:21.200Z,13.10
2022-08-27T19:57:49.484Z,16.70
2022-08-27T20:00:21.762Z,15.93
2022-08-27T20:02:50.790Z,14.33
2022-08-27T20:05:20.179Z,15.40
2022-08-27T20:07:48.905Z,15.37
2022-08-27T20:10:17.189Z,16.37
2022-08-27T20:12:46.378Z,16.00
2022-08-27T20:15:15.636Z,14.80
2022-08-27T20:17:45.403Z,16.10
2022-08-27T20:20:13.963Z,17.47
2022-08-27T20:22:42.269Z,14.00
2022-08-27T20:25:10.960Z,13.40
2022-08-27T20:27:39.095Z,15.60
2022-08-27T20:30:09.215Z,15.83
2022-08-27T20:32:37.135Z,13.97
2022-08-27T20:35:08.074Z,14.20
2022-08-27T20:37:41.989Z,15.30
2022-08-27T20:40:14.084Z,17.03
2022-08-27T20:42:42.016Z,13.10
2022-08-27T20:45:12.345Z,12.10
2022-08-27T20:47:40.950Z,12.30
2022-08-27T20:50:11.871Z,13.73
2022-08-27T20:52:40.235Z,13.03
2022-08-27T20:55:09.569Z,13.63
2022-08-27T20:57:37.536Z,13.43
2022-08-27T21:00:30.363Z,13.00
2022-08-27T21:02:58.352Z,13.70
2022-08-27T21:05:28.725Z,13.27
2022-08-27T21:07:56.608Z,11.07
2022-08-27T21:10:24.586Z,11.10
2022-08-27T21:12:52.504Z,15.03
2022-08-27T21:15:20.378Z,11.67
2022-08-27T21:17:48.749Z,14.53
2022-08-27T21:20:16.694Z,13.03
2022-08-27T21:22:46.262Z,11.97
2022-08-27T21:25:15.144Z,11.43
2022-08-27T21:27:43.417Z,22.20
2022-08-27T21:30:13.020Z,15.03
2022-08-27T21:32:40.935Z,12.30
2022-08-27T21:35:09.367Z,12.77
2022-08-27T21:37:37.660Z,10.83
2022-08-27T21:40:08.815Z,10.97
2022-08-27T21:42:37.024Z,11.93
2022-08-27T21:45:05.594Z,11.07
2022-08-27T21:47:33.495Z,9.60
2022-08-27T21:50:01.639Z,11.90
2022-08-27T21:52:29.586Z,11.23
2022-08-27T21:54:57.467Z,13.50
2022-08-27T21:57:26.679Z,11.60
2022-08-27T21:59:54.608Z,10.90
2022-08-27T22:02:39.201Z,10.33
2022-08-27T22:05:08.933Z,9.87
2022-08-27T22:07:36.866Z,15.00
2022-08-27T22:10:05.798Z,12.87
2022-08-27T22:12:35.542Z,12.13
2022-08-27T22:15:05.298Z,12.03
2022-08-27T22:17:33.207Z,9.60
2022-08-27T22:20:01.087Z,11.57
2022-08-27T22:22:30.885Z,11.80
2022-08-27T22:24:59.008Z,12.30
2022-08-27T22:27:27.585Z,17.37
2022-08-27T22:29:56.878Z,12.17
2022-08-27T22:32:24.895Z,10.57
2022-08-27T22:34:53.657Z,9.07
2022-08-27T22:37:21.634Z,12.23
2022-08-27T22:39:49.523Z,12.83
2022-08-27T22:42:18.267Z,10.63
2022-08-27T22:44:46.474Z,8.73
2022-08-27T22:47:15.746Z,10.30
2022-08-27T22:49:44.430Z,13.10
2022-08-27T22:52:12.488Z,9.90
2022-08-27T22:54:40.468Z,11.30
2022-08-27T22:57:10.386Z,10.73
2022-08-27T22:59:38.948Z,10.53
2022-08-27T23:02:08.443Z,12.27
2022-08-27T23:04:54.097Z,11.13
2022-08-27T23:07:23.027Z,9.90
2022-08-27T23:09:50.975Z,12.87
2022-08-27T23:12:19.812Z,10.67
2022-08-27T23:14:47.839Z,14.30
2022-08-27T23:17:16.451Z,13.60
2022-08-27T23:19:46.170Z,11.37
2022-08-27T23:22:14.747Z,10.53
2022-08-27T23:24:57.152Z,10.20
2022-08-27T23:27:30.680Z,12.13
2022-08-27T23:29:59.684Z,10.50
2022-08-27T23:32:27.967Z,9.77
2022-08-27T23:34:57.796Z,14.20
2022-08-27T23:37:25.684Z,10.80
2022-08-27T23:39:53.606Z,11.93
2022-08-27T23:42:21.730Z,10.40
2022-08-27T23:44:50.094Z,10.93
2022-08-27T23:47:18.671Z,13.13
2022-08-27T23:49:46.744Z,11.17
2022-08-27T23:52:15.993Z,9.97
2022-08-27T23:54:43.927Z,10.23
2022-08-27T23:57:11.798Z,9.67
2022-08-27T23:59:40.155Z,8.97
